createdAt,value
2023-05-11T00:00:47.105Z,71.32
2023-05-11T00:02:50.022Z,71.58
2023-05-11T00:04:54.358Z,69.78
2023-05-11T00:06:57.144Z,70.45
2023-05-11T00:09:00.027Z,70.23
2023-05-11T00:11:03.123Z,70.73
2023-05-11T00:13:05.976Z,69.40
2023-05-11T00:15:09.593Z,70.78
2023-05-11T00:17:13.801Z,70.02
2023-05-11T00:19:16.680Z,68.18
2023-05-11T00:21:19.495Z,70.23
2023-05-11T00:23:22.562Z,72.71
2023-05-11T00:25:25.325Z,71.72
2023-05-11T00:27:28.237Z,73.43
2023-05-11T00:29:31.164Z,74.39
2023-05-11T00:31:34.291Z,72.12
2023-05-11T00:33:38.618Z,72.42
2023-05-11T00:35:41.627Z,68.83
2023-05-11T00:37:44.760Z,72.52
2023-05-11T00:39:47.579Z,72.09
2023-05-11T00:41:50.320Z,73.46
2023-05-11T00:43:53.446Z,70.98
2023-05-11T00:45:56.490Z,73.23
2023-05-11T00:47:59.687Z,73.34
2023-05-11T00:50:04.317Z,70.72
2023-05-11T00:52:07.819Z,70.67
2023-05-11T00:54:15.643Z,71.09
2023-05-11T00:56:18.609Z,71.47
2023-05-11T00:58:21.743Z,71.87
2023-05-11T01:00:24.949Z,73.12
2023-05-11T01:02:28.026Z,72.11
2023-05-11T01:04:31.832Z,71.45
2023-05-11T01:06:46.890Z,72.12
2023-05-11T01:08:57.290Z,72.62
2023-05-11T01:11:08.639Z,73.39
2023-05-11T01:13:19.360Z,72.83
2023-05-11T01:15:28.071Z,72.58
2023-05-11T01:17:41.074Z,72.75
2023-05-11T01:19:49.091Z,71.76
2023-05-11T01:21:54.962Z,71.51
2023-05-11T01:24:21.028Z,73.20
2023-05-11T01:26:37.486Z,73.10
2023-05-11T01:29:08.054Z,72.77
2023-05-11T01:31:15.657Z,73.21
2023-05-11T01:33:24.263Z,72.21
2023-05-11T01:35:29.761Z,74.39
2023-05-11T01:37:33.792Z,75.42
2023-05-11T01:39:40.387Z,74.66
2023-05-11T01:41:51.837Z,73.96
2023-05-11T01:43:58.581Z,73.79
2023-05-11T01:46:03.847Z,73.86
2023-05-11T01:48:09.883Z,74.90
2023-05-11T01:50:13.910Z,74.81
2023-05-11T01:52:18.400Z,74.30
2023-05-11T01:54:21.722Z,74.05
2023-05-11T01:56:27.175Z,74.62
2023-05-11T01:58:31.404Z,73.69
2023-05-11T02:00:34.810Z,76.19
2023-05-11T02:02:38.290Z,77.14
2023-05-11T02:04:45.447Z,75.55
2023-05-11T02:06:49.849Z,76.96
2023-05-11T02:08:53.983Z,76.56
2023-05-11T02:10:58.128Z,77.66
2023-05-11T02:13:04.117Z,76.05
2023-05-11T02:15:10.141Z,76.24
2023-05-11T02:17:13.460Z,76.81
2023-05-11T02:19:18.115Z,77.12
2023-05-11T02:21:23.827Z,75.82
2023-05-11T02:23:28.013Z,76.81
2023-05-11T02:25:32.218Z,75.87
2023-05-11T02:27:36.368Z,76.08
2023-05-11T02:29:39.288Z,75.59
2023-05-11T02:31:46.164Z,78.57
2023-05-11T02:33:54.129Z,76.61
2023-05-11T02:35:59.852Z,77.55
2023-05-11T02:38:09.989Z,77.37
2023-05-11T02:40:17.570Z,78.16
2023-05-11T02:42:23.746Z,77.12
2023-05-11T02:44:32.002Z,78.62
2023-05-11T02:46:37.159Z,78.94
2023-05-11T02:48:45.838Z,78.64
2023-05-11T02:50:52.869Z,77.89
2023-05-11T02:52:59.895Z,79.05
2023-05-11T02:55:06.118Z,79.56
2023-05-11T02:57:09.116Z,78.89
2023-05-11T02:59:14.288Z,78.94
2023-05-11T03:01:18.018Z,78.25
2023-05-11T03:03:21.042Z,78.67
2023-05-11T03:05:24.670Z,78.58
2023-05-11T03:07:28.489Z,78.89
2023-05-11T03:09:31.412Z,80.84
2023-05-11T03:11:36.288Z,78.86
2023-05-11T03:13:40.278Z,79.47
2023-05-11T03:15:44.548Z,79.24
2023-05-11T03:17:48.115Z,79.04
2023-05-11T03:19:53.060Z,78.00
2023-05-11T03:21:58.488Z,79.28
2023-05-11T03:24:02.264Z,78.81
2023-05-11T03:26:07.907Z,78.61
2023-05-11T03:28:16.331Z,79.36
2023-05-11T03:30:29.447Z,79.75
2023-05-11T03:32:34.256Z,78.66
2023-05-11T03:34:38.225Z,78.32
2023-05-11T03:36:43.126Z,79.70
2023-05-11T03:38:47.816Z,80.08
2023-05-11T03:40:53.902Z,79.42
2023-05-11T03:42:58.720Z,80.41
2023-05-11T03:45:06.402Z,78.99
2023-05-11T03:47:10.703Z,79.70
2023-05-11T03:49:14.182Z,79.73
2023-05-11T03:51:18.347Z,79.49
2023-05-11T03:53:21.674Z,80.40
2023-05-11T03:55:24.968Z,79.30
2023-05-11T03:57:28.502Z,80.51
2023-05-11T03:59:31.554Z,79.92
2023-05-11T04:01:36.080Z,80.68
2023-05-11T04:03:49.289Z,79.84
2023-05-11T04:05:52.529Z,79.69
2023-05-11T04:07:55.362Z,79.94
2023-05-11T04:09:58.267Z,79.22
2023-05-11T04:12:01.061Z,79.39
2023-05-11T04:14:05.121Z,80.23
2023-05-11T04:16:08.954Z,79.34
2023-05-11T04:18:13.464Z,78.86
2023-05-11T04:20:16.923Z,78.19
2023-05-11T04:22:20.825Z,78.31
2023-05-11T04:24:23.679Z,77.48
2023-05-11T04:26:26.630Z,78.51
2023-05-11T04:28:29.866Z,76.26
2023-05-11T04:30:34.420Z,75.07
2023-05-11T04:32:37.316Z,77.11
2023-05-11T04:34:41.706Z,75.75
2023-05-11T04:36:48.274Z,74.21
2023-05-11T04:38:51.138Z,76.58
2023-05-11T04:40:53.939Z,74.67
2023-05-11T04:42:57.158Z,75.67
2023-05-11T04:45:00.136Z,75.70
2023-05-11T04:47:03.114Z,76.83
2023-05-11T04:49:06.389Z,75.33
2023-05-11T04:51:13.092Z,74.90
2023-05-11T04:53:19.999Z,76.01
2023-05-11T04:55:23.101Z,74.53
2023-05-11T04:57:27.018Z,76.81
2023-05-11T04:59:30.158Z,75.67
2023-05-11T05:01:33.139Z,73.00
2023-05-11T05:03:36.347Z,71.81
2023-05-11T05:05:39.195Z,72.43
2023-05-11T05:07:43.636Z,71.60
2023-05-11T05:09:46.734Z,71.09
2023-05-11T05:11:51.031Z,70.80
2023-05-11T05:13:55.361Z,70.08
2023-05-11T05:15:58.707Z,68.61
2023-05-11T05:18:02.546Z,69.57
2023-05-11T05:20:07.387Z,68.95
2023-05-11T05:22:10.123Z,65.67
2023-05-11T05:24:14.638Z,68.24
2023-05-11T05:26:17.492Z,67.33
2023-05-11T05:28:22.201Z,67.70
2023-05-11T05:30:25.402Z,65.88
2023-05-11T05:32:29.163Z,66.13
2023-05-11T05:34:32.046Z,68.06
2023-05-11T05:36:34.914Z,66.98
2023-05-11T05:38:38.634Z,66.20
2023-05-11T05:40:44.020Z,63.82
2023-05-11T05:42:47.220Z,64.88
2023-05-11T05:44:54.983Z,64.30
2023-05-11T05:46:58.534Z,65.74
2023-05-11T05:49:05.750Z,62.22
2023-05-11T05:51:09.426Z,63.50
2023-05-11T05:53:12.983Z,63.28
2023-05-11T05:55:15.943Z,63.95
2023-05-11T05:57:22.251Z,65.48
2023-05-11T05:59:25.126Z,63.25
2023-05-11T06:01:32.164Z,65.11
2023-05-11T06:03:35.110Z,63.24
2023-05-11T06:05:39.573Z,64.97
2023-05-11T06:07:43.105Z,65.16
2023-05-11T06:09:48.220Z,65.69
2023-05-11T06:11:51.421Z,65.61
2023-05-11T06:13:56.565Z,64.26
2023-05-11T06:15:59.867Z,64.17
2023-05-11T06:18:08.758Z,66.40
2023-05-11T06:20:13.137Z,67.09
2023-05-11T06:22:16.229Z,68.16
2023-05-11T06:24:19.469Z,65.22
2023-05-11T06:26:25.414Z,64.55
2023-05-11T06:28:30.033Z,65.47
2023-05-11T06:30:38.080Z,66.40
2023-05-11T06:32:43.323Z,63.05
2023-05-11T06:34:47.271Z,64.95
2023-05-11T06:36:50.893Z,64.59
2023-05-11T06:38:53.702Z,62.27
2023-05-11T06:40:57.455Z,64.03
2023-05-11T06:43:00.693Z,64.43
2023-05-11T06:45:17.907Z,62.62
2023-05-11T06:47:22.531Z,63.07
2023-05-11T06:49:25.533Z,62.47
2023-05-11T06:51:28.385Z,62.52
2023-05-11T06:53:31.281Z,58.24
2023-05-11T06:55:34.519Z,62.16
2023-05-11T06:57:37.484Z,57.90
2023-05-11T06:59:40.492Z,56.65
2023-05-11T07:01:43.997Z,54.90
2023-05-11T07:03:50.461Z,54.08
2023-05-11T07:05:54.680Z,53.96
2023-05-11T07:07:57.622Z,50.87
2023-05-11T07:10:00.378Z,52.73
2023-05-11T07:12:03.341Z,51.59
2023-05-11T07:14:06.310Z,50.34
2023-05-11T07:16:09.196Z,51.70
2023-05-11T07:18:12.349Z,50.10
2023-05-11T07:20:18.024Z,50.07
2023-05-11T07:22:21.331Z,53.95
2023-05-11T07:24:24.435Z,51.72
2023-05-11T07:26:27.379Z,51.07
2023-05-11T07:28:30.289Z,53.26
2023-05-11T07:30:33.102Z,54.18
2023-05-11T07:32:36.180Z,54.68
2023-05-11T07:34:41.408Z,54.01
2023-05-11T07:36:46.753Z,52.39
2023-05-11T07:38:49.511Z,51.86
2023-05-11T07:40:52.726Z,52.58
2023-05-11T07:42:55.529Z,52.38
2023-05-11T07:44:58.462Z,51.06
2023-05-11T07:47:01.379Z,48.86
2023-05-11T07:49:15.689Z,53.30
2023-05-11T07:51:23.669Z,51.02
2023-05-11T07:53:28.132Z,49.45
2023-05-11T07:55:31.426Z,46.84
2023-05-11T07:57:34.451Z,45.09
2023-05-11T07:59:37.512Z,45.28
2023-05-11T08:01:40.545Z,41.42
2023-05-11T08:03:43.756Z,41.16
2023-05-11T08:05:46.912Z,41.32
2023-05-11T08:07:49.976Z,40.09
2023-05-11T08:09:54.811Z,42.57
2023-05-11T08:11:57.723Z,41.66
2023-05-11T08:14:00.734Z,40.29
2023-05-11T08:16:04.171Z,40.61
2023-05-11T08:18:08.069Z,42.57
2023-05-11T08:20:11.646Z,40.30
2023-05-11T08:22:14.812Z,41.82
2023-05-11T08:24:17.775Z,41.54
2023-05-11T08:26:22.143Z,37.83
2023-05-11T08:28:25.114Z,43.30
2023-05-11T08:30:28.141Z,41.33
2023-05-11T08:32:31.118Z,42.05
2023-05-11T08:34:34.261Z,38.49
2023-05-11T08:36:37.376Z,38.81
2023-05-11T08:38:40.728Z,41.12
2023-05-11T08:40:48.267Z,39.62
2023-05-11T08:42:55.697Z,39.25
2023-05-11T08:44:59.726Z,39.76
2023-05-11T08:47:21.281Z,36.68
2023-05-11T08:49:25.605Z,35.07
2023-05-11T08:51:28.773Z,35.39
2023-05-11T08:53:31.708Z,34.96
2023-05-11T08:55:35.536Z,36.22
2023-05-11T08:57:41.074Z,34.81
2023-05-11T08:59:47.298Z,34.04
2023-05-11T09:01:51.784Z,33.39
2023-05-11T09:03:55.256Z,33.38
2023-05-11T09:05:59.170Z,32.94
2023-05-11T09:08:04.600Z,33.77
2023-05-11T09:10:09.734Z,33.70
2023-05-11T09:12:13.815Z,31.55
2023-05-11T09:14:16.712Z,31.12
2023-05-11T09:16:32.961Z,34.38
2023-05-11T09:18:47.961Z,32.61
2023-05-11T09:20:52.812Z,33.69
2023-05-11T09:22:57.080Z,32.45
2023-05-11T09:25:00.395Z,31.96
2023-05-11T09:27:10.005Z,31.50
2023-05-11T09:29:13.178Z,32.65
2023-05-11T09:31:36.117Z,34.61
2023-05-11T09:33:39.156Z,31.04
2023-05-11T09:35:43.603Z,31.74
2023-05-11T09:37:57.921Z,30.92
2023-05-11T09:40:25.896Z,30.46
2023-05-11T09:42:24.024Z,31.50
2023-05-11T09:44:32.763Z,30.89
2023-05-11T09:46:38.314Z,33.09
2023-05-11T09:48:40.882Z,30.11
2023-05-11T09:50:44.127Z,31.11
2023-05-11T09:52:52.355Z,29.85
2023-05-11T09:54:55.295Z,32.35
2023-05-11T09:57:00.575Z,31.30
2023-05-11T09:59:03.893Z,31.41
2023-05-11T10:01:06.843Z,30.43
2023-05-11T10:03:11.379Z,30.63
2023-05-11T10:05:14.621Z,31.70
2023-05-11T10:07:29.170Z,32.86
2023-05-11T10:09:33.321Z,32.31
2023-05-11T10:11:37.488Z,32.10
2023-05-11T10:13:40.927Z,33.66
2023-05-11T10:15:44.636Z,29.54
2023-05-11T10:17:49.067Z,32.63
2023-05-11T10:19:57.233Z,32.73
2023-05-11T10:22:01.163Z,32.02
2023-05-11T10:24:04.872Z,30.71
2023-05-11T10:26:08.324Z,31.88
2023-05-11T10:28:11.732Z,33.65
2023-05-11T10:30:15.286Z,32.22
2023-05-11T10:32:20.087Z,33.90
2023-05-11T10:34:24.554Z,32.22
2023-05-11T10:36:29.527Z,30.56
2023-05-11T10:38:32.463Z,29.84
2023-05-11T10:40:38.391Z,33.18
2023-05-11T10:43:15.699Z,33.71
2023-05-11T10:45:25.061Z,31.85
2023-05-11T10:47:48.950Z,30.96
2023-05-11T10:50:26.240Z,31.31
2023-05-11T10:52:48.874Z,33.22
2023-05-11T10:55:08.021Z,30.37
2023-05-11T10:57:25.291Z,31.98
2023-05-11T10:59:52.163Z,33.63
2023-05-11T11:01:59.304Z,34.00
2023-05-11T11:04:05.869Z,32.88
2023-05-11T11:06:23.134Z,30.48
2023-05-11T11:08:27.537Z,32.51
2023-05-11T11:10:32.861Z,32.01
2023-05-11T11:12:35.924Z,27.57
2023-05-11T11:14:54.318Z,31.10
2023-05-11T11:17:27.437Z,29.11
2023-05-11T11:19:37.215Z,30.24
2023-05-11T11:21:42.124Z,30.10
2023-05-11T11:23:50.593Z,30.24
2023-05-11T11:25:54.714Z,29.65
2023-05-11T11:27:59.390Z,29.21
2023-05-11T11:30:19.565Z,28.42
2023-05-11T11:32:26.985Z,29.37
2023-05-11T11:34:36.628Z,32.03
2023-05-11T11:37:09.064Z,29.52
2023-05-11T11:39:14.316Z,28.53
2023-05-11T11:41:29.583Z,30.33
2023-05-11T11:43:46.124Z,30.62
2023-05-11T11:45:53.156Z,31.54
2023-05-11T11:48:16.511Z,28.80
2023-05-11T11:50:20.504Z,29.59
2023-05-11T11:52:34.895Z,29.11
2023-05-11T11:54:40.614Z,29.25
2023-05-11T11:56:45.135Z,29.72
2023-05-11T11:59:00.670Z,28.95
2023-05-11T12:01:05.697Z,30.76
2023-05-11T12:03:10.748Z,29.05
2023-05-11T12:05:19.140Z,30.37
2023-05-11T12:07:24.814Z,30.56
2023-05-11T12:09:28.077Z,29.68
2023-05-11T12:11:33.361Z,26.11
2023-05-11T12:13:36.463Z,26.39
2023-05-11T12:15:39.421Z,30.16
2023-05-11T12:17:42.501Z,29.77
2023-05-11T12:19:46.863Z,28.67
2023-05-11T12:21:49.902Z,31.08
2023-05-11T12:23:55.200Z,29.11
2023-05-11T12:26:02.314Z,31.71
2023-05-11T12:28:07.227Z,29.84
2023-05-11T12:30:20.181Z,32.36
2023-05-11T12:32:29.920Z,27.80
2023-05-11T12:34:33.091Z,27.43
2023-05-11T12:36:36.944Z,29.55
2023-05-11T12:38:44.605Z,27.74
2023-05-11T12:40:49.243Z,29.66
2023-05-11T12:42:52.710Z,29.49
2023-05-11T12:44:57.808Z,31.05
2023-05-11T12:47:01.063Z,29.08
2023-05-11T12:49:04.548Z,28.44
2023-05-11T12:51:07.643Z,27.63
2023-05-11T12:53:14.860Z,29.41
2023-05-11T12:55:28.265Z,25.77
2023-05-11T12:57:33.585Z,31.53
2023-05-11T12:59:39.474Z,29.27
2023-05-11T13:01:43.478Z,31.28
2023-05-11T13:03:48.364Z,27.82
2023-05-11T13:06:03.851Z,28.06
2023-05-11T13:08:06.951Z,26.78
2023-05-11T13:10:10.683Z,28.26
2023-05-11T13:12:18.177Z,26.92
2023-05-11T13:14:21.132Z,25.77
2023-05-11T13:16:28.753Z,24.32
2023-05-11T13:18:33.321Z,25.20
2023-05-11T13:20:37.280Z,25.21
2023-05-11T13:22:40.072Z,23.98
2023-05-11T13:24:43.110Z,23.23
2023-05-11T13:26:46.662Z,22.50
2023-05-11T13:28:58.382Z,25.04
2023-05-11T13:31:09.257Z,23.33
2023-05-11T13:33:12.499Z,21.46
2023-05-11T13:35:17.182Z,22.84
2023-05-11T13:37:20.341Z,23.52
2023-05-11T13:39:23.346Z,22.71
2023-05-11T13:43:30.043Z,21.92
2023-05-11T13:45:33.217Z,21.58
2023-05-11T13:47:36.389Z,23.26
2023-05-11T13:49:39.373Z,24.32
2023-05-11T13:51:43.771Z,21.85
2023-05-11T13:53:46.720Z,22.85
2023-05-11T13:55:49.760Z,22.84
2023-05-11T13:57:53.177Z,23.04
2023-05-11T13:59:57.179Z,22.85
2023-05-11T14:02:00.320Z,22.46
2023-05-11T14:04:03.349Z,24.27
2023-05-11T14:06:07.183Z,22.98
2023-05-11T14:08:11.472Z,22.59
2023-05-11T14:10:14.809Z,22.41
2023-05-11T14:12:17.704Z,19.50
2023-05-11T14:14:20.788Z,19.87
2023-05-11T14:16:23.757Z,21.94
2023-05-11T14:18:27.026Z,22.45
2023-05-11T14:20:30.473Z,23.20
2023-05-11T14:22:33.425Z,20.60
2023-05-11T14:24:37.962Z,21.30
2023-05-11T14:26:41.162Z,28.33
2023-05-11T14:28:44.306Z,24.68
2023-05-11T14:30:47.649Z,25.48
2023-05-11T14:32:52.988Z,26.50
2023-05-11T14:34:56.261Z,28.03
2023-05-11T14:37:01.486Z,27.31
2023-05-11T14:39:04.379Z,27.39
2023-05-11T14:41:09.078Z,27.75
2023-05-11T14:43:12.268Z,28.86
2023-05-11T14:45:15.665Z,26.43
2023-05-11T14:47:18.678Z,28.02
2023-05-11T14:49:21.572Z,26.63
2023-05-11T14:51:24.735Z,27.57
2023-05-11T14:53:27.645Z,27.44
2023-05-11T14:55:31.535Z,26.85
2023-05-11T14:57:35.968Z,26.05
2023-05-11T14:59:51.272Z,26.74
2023-05-11T15:02:02.202Z,27.39
2023-05-11T15:04:05.845Z,27.47
2023-05-11T15:06:08.927Z,27.68
2023-05-11T15:08:22.076Z,27.97
2023-05-11T15:10:31.805Z,29.81
2023-05-11T15:12:36.321Z,29.83
2023-05-11T15:14:39.104Z,31.41
2023-05-11T15:16:42.171Z,31.08
2023-05-11T15:18:45.278Z,31.59
2023-05-11T15:20:49.100Z,30.94
2023-05-11T15:22:52.273Z,31.39
2023-05-11T15:24:56.050Z,31.77
2023-05-11T15:26:59.602Z,31.23
2023-05-11T15:29:04.084Z,31.27
2023-05-11T15:31:07.036Z,31.12
2023-05-11T15:33:10.726Z,32.57
2023-05-11T15:35:15.343Z,31.24
2023-05-11T15:37:18.313Z,30.18
2023-05-11T15:39:21.298Z,31.25
2023-05-11T15:41:24.375Z,30.52
2023-05-11T15:43:27.285Z,30.79
2023-05-11T15:45:31.882Z,31.79
2023-05-11T15:47:34.984Z,31.55
2023-05-11T15:49:38.045Z,31.25
2023-05-11T15:51:41.046Z,30.39
2023-05-11T15:53:44.001Z,31.76
2023-05-11T15:55:51.082Z,30.83
2023-05-11T15:57:54.183Z,31.11
2023-05-11T15:59:57.203Z,31.73
2023-05-11T16:02:01.712Z,30.99
2023-05-11T16:04:04.892Z,31.56
2023-05-11T16:06:08.405Z,30.06
2023-05-11T16:08:11.870Z,30.25
2023-05-11T16:10:14.844Z,31.44
2023-05-11T16:12:17.784Z,30.60
2023-05-11T16:14:20.815Z,31.24
2023-05-11T16:16:24.757Z,31.79
2023-05-11T16:18:29.326Z,30.50
2023-05-11T16:20:32.530Z,31.85
2023-05-11T16:22:37.666Z,31.86
2023-05-11T16:24:40.620Z,32.78
2023-05-11T16:26:44.239Z,30.68
2023-05-11T16:28:47.040Z,32.13
2023-05-11T16:30:49.959Z,32.49
2023-05-11T16:32:53.382Z,32.20
2023-05-11T16:34:58.361Z,31.62
2023-05-11T16:37:01.232Z,31.28
2023-05-11T16:39:04.673Z,33.31
2023-05-11T16:41:07.591Z,32.49
2023-05-11T16:43:10.841Z,33.65
2023-05-11T16:45:13.871Z,33.60
2023-05-11T16:47:17.761Z,33.93
2023-05-11T16:49:20.724Z,32.25
2023-05-11T16:51:25.326Z,34.25
2023-05-11T16:53:28.281Z,33.91
2023-05-11T16:55:31.461Z,33.65
2023-05-11T16:57:34.729Z,33.59
2023-05-11T16:59:37.662Z,33.89
2023-05-11T17:01:40.546Z,33.52
2023-05-11T17:03:44.099Z,33.50
2023-05-11T17:05:47.305Z,34.46
2023-05-11T17:07:52.114Z,34.54
2023-05-11T17:09:57.383Z,35.50
2023-05-11T17:12:00.148Z,35.68
2023-05-11T17:14:03.205Z,35.10
2023-05-11T17:16:06.499Z,35.54
2023-05-11T17:18:09.796Z,35.60
2023-05-11T17:20:13.661Z,35.69
2023-05-11T17:22:16.596Z,34.56
2023-05-11T17:24:21.832Z,35.11
2023-05-11T17:26:27.408Z,36.20
2023-05-11T17:28:35.487Z,36.27
2023-05-11T17:30:47.912Z,37.06
2023-05-11T17:32:52.495Z,36.44
2023-05-11T17:34:55.613Z,36.56
2023-05-11T17:36:58.893Z,36.68
2023-05-11T17:39:01.845Z,36.57
2023-05-11T17:41:06.604Z,37.82
2023-05-11T17:43:09.711Z,37.28
2023-05-11T17:45:13.641Z,37.35
2023-05-11T17:47:16.492Z,36.87
2023-05-11T17:49:20.048Z,37.22
2023-05-11T17:51:22.967Z,36.81
2023-05-11T17:53:26.305Z,37.55
2023-05-11T17:55:29.299Z,39.20
2023-05-11T17:57:33.801Z,38.65
2023-05-11T17:59:36.765Z,38.34
2023-05-11T18:01:39.865Z,39.35
2023-05-11T18:03:43.008Z,38.68
2023-05-11T18:05:49.238Z,40.21
2023-05-11T18:07:52.860Z,39.41
2023-05-11T18:09:56.134Z,39.21
2023-05-11T18:11:59.237Z,39.92
2023-05-11T18:14:04.098Z,39.36
2023-05-11T18:16:07.490Z,40.59
2023-05-11T18:18:10.681Z,40.09
2023-05-11T18:20:13.839Z,41.18
2023-05-11T18:22:16.803Z,40.77
2023-05-11T18:24:19.885Z,40.21
2023-05-11T18:26:23.185Z,40.70
2023-05-11T18:28:26.370Z,40.67
2023-05-11T18:30:30.904Z,40.66
2023-05-11T18:32:33.910Z,41.41
2023-05-11T18:34:39.204Z,43.08
2023-05-11T18:36:42.532Z,42.32
2023-05-11T18:38:45.544Z,43.30
2023-05-11T18:40:48.554Z,42.33
2023-05-11T18:42:53.333Z,43.48
2023-05-11T18:44:57.165Z,42.80
2023-05-11T18:47:01.676Z,43.68
2023-05-11T18:49:04.629Z,43.79
2023-05-11T18:51:07.596Z,45.04
2023-05-11T18:53:10.366Z,44.92
2023-05-11T18:55:13.442Z,44.69
2023-05-11T18:57:19.074Z,44.17
2023-05-11T18:59:21.920Z,45.48
2023-05-11T19:01:33.013Z,44.68
2023-05-11T19:03:44.599Z,45.93
2023-05-11T19:05:48.719Z,45.52
2023-05-11T19:07:52.608Z,46.54
2023-05-11T19:09:55.648Z,45.65
2023-05-11T19:11:58.725Z,46.56
2023-05-11T19:14:01.986Z,47.62
2023-05-11T19:16:05.475Z,47.65
2023-05-11T19:18:08.449Z,46.02
2023-05-11T19:20:13.097Z,48.20
2023-05-11T19:22:17.441Z,47.22
2023-05-11T19:24:20.462Z,47.84
2023-05-11T19:26:23.304Z,48.52
2023-05-11T19:28:26.592Z,47.56
2023-05-11T19:30:29.471Z,47.53
2023-05-11T19:32:32.448Z,47.39
2023-05-11T19:34:36.557Z,48.96
2023-05-11T19:36:41.117Z,48.99
2023-05-11T19:38:44.235Z,47.83
2023-05-11T19:40:47.770Z,48.57
2023-05-11T19:42:51.113Z,48.47
2023-05-11T19:44:54.073Z,48.72
2023-05-11T19:46:57.026Z,48.93
2023-05-11T19:49:00.034Z,48.38
2023-05-11T19:51:03.054Z,49.10
2023-05-11T19:53:07.788Z,49.35
2023-05-11T19:55:10.741Z,48.64
2023-05-11T19:57:13.743Z,49.46
2023-05-11T19:59:16.616Z,49.47
2023-05-11T20:01:19.817Z,50.39
2023-05-11T20:03:22.927Z,50.60
2023-05-11T20:05:25.843Z,49.35
2023-05-11T20:07:28.730Z,50.17
2023-05-11T20:09:33.308Z,50.86
2023-05-11T20:11:36.117Z,50.83
2023-05-11T20:13:38.996Z,50.04
2023-05-11T20:15:41.901Z,51.05
2023-05-11T20:17:45.109Z,51.22
2023-05-11T20:19:47.932Z,51.83
2023-05-11T20:21:52.126Z,52.35
2023-05-11T20:23:55.010Z,52.26
2023-05-11T20:25:59.379Z,51.87
2023-05-11T20:28:02.370Z,52.80
2023-05-11T20:30:06.452Z,52.33
2023-05-11T20:32:09.936Z,51.70
2023-05-11T20:34:13.330Z,52.80
2023-05-11T20:36:16.572Z,52.34
2023-05-11T20:38:19.763Z,52.22
2023-05-11T20:40:22.590Z,52.93
2023-05-11T20:42:27.428Z,52.76
2023-05-11T20:44:30.410Z,52.60
2023-05-11T20:46:33.262Z,52.43
2023-05-11T20:48:39.723Z,52.81
2023-05-11T20:50:49.982Z,52.40
2023-05-11T20:52:53.229Z,52.80
2023-05-11T20:54:56.291Z,52.79
2023-05-11T20:57:00.089Z,53.62
2023-05-11T20:59:04.584Z,52.80
2023-05-11T21:01:08.225Z,53.25
2023-05-11T21:03:11.323Z,53.60
2023-05-11T21:05:14.473Z,53.42
2023-05-11T21:07:17.559Z,53.26
2023-05-11T21:09:20.683Z,53.19
2023-05-11T21:11:23.745Z,53.29
2023-05-11T21:13:26.797Z,53.27
2023-05-11T21:15:31.500Z,53.75
2023-05-11T21:17:34.833Z,53.83
2023-05-11T21:19:37.952Z,53.64
2023-05-11T21:21:40.797Z,53.86
2023-05-11T21:23:43.726Z,54.96
2023-05-11T21:25:52.276Z,53.75
2023-05-11T21:27:55.169Z,54.21
2023-05-11T21:29:58.075Z,53.54
2023-05-11T21:32:02.599Z,53.55
2023-05-11T21:34:05.557Z,53.79
2023-05-11T21:36:09.036Z,53.72
2023-05-11T21:38:15.708Z,53.26
2023-05-11T21:40:18.991Z,53.96
2023-05-11T21:42:22.170Z,54.55
2023-05-11T21:44:25.219Z,54.88
2023-05-11T21:46:28.135Z,54.62
2023-05-11T21:48:32.610Z,54.68
2023-05-11T21:50:35.723Z,54.03
2023-05-11T21:52:38.828Z,54.93
2023-05-11T21:54:42.066Z,54.30
2023-05-11T21:56:44.948Z,55.02
2023-05-11T21:58:48.018Z,55.12
2023-05-11T22:00:51.227Z,56.20
2023-05-11T22:02:54.121Z,55.69
2023-05-11T22:04:58.752Z,55.95
2023-05-11T22:07:01.958Z,56.12
2023-05-11T22:09:05.374Z,55.72
2023-05-11T22:11:08.307Z,56.21
2023-05-11T22:13:11.465Z,56.20
2023-05-11T22:15:14.663Z,55.81
2023-05-11T22:17:17.630Z,56.33
2023-05-11T22:19:20.471Z,57.29
2023-05-11T22:21:27.616Z,57.75
2023-05-11T22:23:31.445Z,57.48
2023-05-11T22:25:34.493Z,57.17
2023-05-11T22:27:37.408Z,57.06
2023-05-11T22:29:40.320Z,56.56
2023-05-11T22:31:45.880Z,56.78
2023-05-11T22:33:49.248Z,57.29
2023-05-11T22:35:52.126Z,56.39
2023-05-11T22:37:56.637Z,56.91
2023-05-11T22:40:00.134Z,56.97
2023-05-11T22:42:03.784Z,57.18
2023-05-11T22:44:06.988Z,57.94
2023-05-11T22:46:09.831Z,57.46
2023-05-11T22:48:12.769Z,57.40
2023-05-11T22:50:16.071Z,58.81
2023-05-11T22:52:19.041Z,59.36
2023-05-11T22:54:23.355Z,58.83
2023-05-11T22:56:26.426Z,58.83
2023-05-11T22:58:29.317Z,58.76
2023-05-11T23:00:32.520Z,58.82
2023-05-11T23:02:36.215Z,58.75
2023-05-11T23:04:39.295Z,60.12
2023-05-11T23:06:42.256Z,60.67
2023-05-11T23:08:45.376Z,60.63
2023-05-11T23:10:50.528Z,60.42
2023-05-11T23:12:53.628Z,60.80
2023-05-11T23:14:56.531Z,61.06
2023-05-11T23:16:59.427Z,61.39
2023-05-11T23:19:02.839Z,61.84
2023-05-11T23:21:06.343Z,60.79
2023-05-11T23:23:09.219Z,60.89
2023-05-11T23:25:12.329Z,61.48
2023-05-11T23:27:17.512Z,61.66
2023-05-11T23:29:20.627Z,61.99
2023-05-11T23:31:23.623Z,61.33
2023-05-11T23:33:27.414Z,61.97
2023-05-11T23:35:30.768Z,61.35
2023-05-11T23:37:33.749Z,61.92
2023-05-11T23:39:36.661Z,62.41
2023-05-11T23:41:39.637Z,62.21
2023-05-11T23:43:43.997Z,62.43
2023-05-11T23:45:46.994Z,61.59
2023-05-11T23:47:49.940Z,62.09
2023-05-11T23:49:53.061Z,60.05
2023-05-11T23:51:56.399Z,59.82
2023-05-11T23:54:00.000Z,59.76
2023-05-11T23:56:03.243Z,60.48
2023-05-11T23:58:06.348Z,60.50
